Time;durP1;ratioP1;P1;durP2;ratioP2;P2;SDS_P1;SDS_P2;PMS_P1;PMS_P2;Temp;Humidity;BMP_temperature;BMP_pressure;BME280_temperature;BME280_humidity;BME280_pressure;Samples;Min_cycle;Max_cycle;Signal;HPM_P1;HPM_P2
2021/12/07 00:00:29;;;;;;;52.72;23.30;;;2.40;99.90;;;;;;4898361;29;20590;-83
2021/12/07 00:02:55;;;;;;;45.58;21.38;;;2.40;99.90;;;;;;4901335;29;20047;-84
2021/12/07 00:05:22;;;;;;;56.33;22.90;;;2.40;99.90;;;;;;4899996;29;20047;-83
2021/12/07 00:07:48;;;;;;;58.13;23.80;;;2.30;99.90;;;;;;4881948;29;20079;-85
2021/12/07 00:10:15;;;;;;;45.90;22.05;;;2.40;99.90;;;;;;4878444;29;21256;-83
2021/12/07 00:12:43;;;;;;;41.88;21.33;;;2.30;99.90;;;;;;4890057;29;20058;-85
2021/12/07 00:15:12;;;;;;;55.75;23.33;;;2.30;99.90;;;;;;4893243;29;20046;-87
2021/12/07 00:17:37;;;;;;;54.42;22.73;;;2.20;99.90;;;;;;4906200;29;20044;-83
2021/12/07 00:20:11;;;;;;;60.42;22.67;;;2.20;99.90;;;;;;4878083;29;20404;-84
2021/12/07 00:22:38;;;;;;;59.30;23.80;;;2.10;99.90;;;;;;4920154;29;20046;-83
2021/12/07 00:25:06;;;;;;;60.65;23.60;;;2.00;99.90;;;;;;4895004;29;20067;-83
2021/12/07 00:27:32;;;;;;;53.55;22.58;;;2.00;99.90;;;;;;4893921;29;20048;-82
2021/12/07 00:29:58;;;;;;;54.05;22.75;;;1.90;99.90;;;;;;4889965;29;20098;-82
2021/12/07 00:32:33;;;;;;;76.72;24.60;;;1.90;99.90;;;;;;4876274;29;20051;-85
2021/12/07 00:35:33;;;;;;;79.93;24.52;;;1.80;99.90;;;;;;4922988;29;24102;-83
2021/12/07 00:38:01;;;;;;;71.15;24.92;;;1.80;99.90;;;;;;4881731;29;20040;-83
2021/12/07 00:40:28;;;;;;;87.70;25.70;;;1.70;99.90;;;;;;4891616;29;20027;-86
2021/12/07 00:42:54;;;;;;;74.85;25.10;;;1.70;99.90;;;;;;4885518;29;20131;-84
2021/12/07 00:45:21;;;;;;;80.47;25.58;;;1.70;99.90;;;;;;4873239;29;20147;-83
2021/12/07 00:47:53;;;;;;;84.93;27.10;;;1.70;99.90;;;;;;4878253;29;20487;-84
2021/12/07 00:50:24;;;;;;;73.95;25.15;;;1.70;99.90;;;;;;4906437;29;20048;-84
2021/12/07 00:52:50;;;;;;;105.68;27.70;;;1.70;99.90;;;;;;4937727;29;20116;-81
2021/12/07 00:55:21;;;;;;;92.03;26.17;;;1.60;99.90;;;;;;4887079;29;20406;-84
2021/12/07 00:57:51;;;;;;;89.13;26.42;;;1.60;99.90;;;;;;4884794;29;20051;-84
2021/12/07 01:00:18;;;;;;;56.53;23.45;;;1.50;99.90;;;;;;4917626;29;20039;-84
2021/12/07 01:02:44;;;;;;;67.75;23.98;;;1.50;99.90;;;;;;4890346;29;20537;-83
2021/12/07 01:05:17;;;;;;;72.82;25.25;;;1.60;99.90;;;;;;4873308;29;20036;-83
2021/12/07 01:26:45;;;;;;;84.57;25.13;;;1.20;99.90;;;;;;4897306;29;20095;-82
2021/12/07 01:29:10;;;;;;;90.55;24.73;;;1.20;99.90;;;;;;4877851;29;20040;-82
2021/12/07 01:31:51;;;;;;;63.15;21.85;;;1.20;99.90;;;;;;4908818;29;20641;-80
2021/12/07 01:34:42;;;;;;;100.93;24.85;;;1.20;99.90;;;;;;4881510;29;20047;-81
2021/12/07 01:50:15;;;;;;;76.47;24.05;;;1.10;99.90;;;;;;4881729;29;20044;-81
2021/12/07 02:00:57;;;;;;;80.20;23.30;;;1.00;99.90;;;;;;4912389;29;20572;-82
2021/12/07 02:03:23;;;;;;;95.72;25.30;;;1.00;99.90;;;;;;4891570;29;20147;-81
2021/12/07 02:05:51;;;;;;;93.03;25.17;;;1.00;99.90;;;;;;4927490;29;20054;-82
2021/12/07 02:08:17;;;;;;;83.45;24.80;;;1.00;99.90;;;;;;4910612;29;20487;-82
2021/12/07 02:10:44;;;;;;;81.57;24.65;;;1.00;99.90;;;;;;4881727;29;20047;-82
2021/12/07 02:14:01;;;;;;;111.82;25.95;;;1.00;99.90;;;;;;4883578;29;20062;-82
2021/12/07 02:16:05;;;;;;;154.70;28.00;;;1.00;99.90;;;;;;4913731;29;20046;-80
2021/12/07 02:18:30;;;;;;;87.00;24.88;;;1.00;99.90;;;;;;4875135;29;20055;-82
2021/12/07 02:21:22;;;;;;;89.32;25.15;;;1.00;99.90;;;;;;4872128;29;20078;-82
2021/12/07 02:23:49;;;;;;;77.00;23.75;;;1.00;99.90;;;;;;4921518;29;20490;-83
2021/12/07 02:26:16;;;;;;;98.63;25.77;;;0.90;99.90;;;;;;4892745;29;20048;-81
2021/12/07 02:28:41;;;;;;;91.03;23.95;;;0.90;99.90;;;;;;4905599;29;20036;-82
2021/12/07 02:31:09;;;;;;;146.07;26.65;;;0.90;99.90;;;;;;4881685;29;20039;-81
2021/12/07 02:33:36;;;;;;;66.32;22.67;;;0.90;99.90;;;;;;4894896;29;20107;-81
2021/12/07 02:36:02;;;;;;;80.38;24.85;;;1.00;99.90;;;;;;4907034;29;20730;-82
2021/12/07 02:38:28;;;;;;;111.38;26.65;;;1.00;99.90;;;;;;4875631;29;20127;-82
2021/12/07 02:40:54;;;;;;;68.05;24.30;;;0.90;99.90;;;;;;4903298;29;20126;-82
2021/12/07 02:43:20;;;;;;;62.78;22.05;;;0.90;99.90;;;;;;4877688;29;20046;-83
2021/12/07 02:45:46;;;;;;;83.22;26.20;;;0.90;99.90;;;;;;4877374;29;20047;-82
2021/12/07 02:48:12;;;;;;;105.78;25.90;;;0.90;99.90;;;;;;4925161;29;20091;-82
2021/12/07 02:50:38;;;;;;;77.97;24.48;;;0.90;99.90;;;;;;4877789;29;22135;-82
2021/12/07 02:53:04;;;;;;;77.25;24.60;;;0.90;99.90;;;;;;4876232;29;23346;-81
2021/12/07 02:55:32;;;;;;;132.23;28.48;;;0.90;99.90;;;;;;4892750;29;20043;-82
2021/12/07 02:57:58;;;;;;;70.90;24.35;;;1.00;99.90;;;;;;4891880;29;20043;-82
2021/12/07 03:00:30;;;;;;;87.07;26.05;;;0.90;99.90;;;;;;4875529;29;20121;-81
2021/12/07 03:03:02;;;;;;;72.32;24.67;;;1.00;99.90;;;;;;4864187;29;20039;-81
2021/12/07 03:26:53;;;;;;;86.88;27.95;;;1.00;99.90;;;;;;4910710;29;20047;-83
2021/12/07 03:29:19;;;;;;;80.85;27.23;;;1.00;99.90;;;;;;4878079;29;20558;-82
2021/12/07 03:31:45;;;;;;;91.05;29.17;;;1.10;99.90;;;;;;4872641;29;20048;-83
2021/12/07 03:34:11;;;;;;;72.53;26.17;;;1.10;99.90;;;;;;4923016;29;20120;-82
2021/12/07 03:36:36;;;;;;;74.95;26.10;;;1.10;99.90;;;;;;4893777;29;22617;-81
2021/12/07 03:39:06;;;;;;;92.45;29.30;;;1.10;99.90;;;;;;4903353;29;20039;-82
2021/12/07 03:41:33;;;;;;;92.47;28.80;;;1.00;99.90;;;;;;4888574;29;20046;-83
2021/12/07 03:43:59;;;;;;;76.65;26.75;;;1.00;99.90;;;;;;4875340;29;20047;-82
2021/12/07 03:46:25;;;;;;;90.40;28.60;;;1.00;99.90;;;;;;4917799;29;20036;-81
2021/12/07 03:48:51;;;;;;;89.43;29.35;;;1.00;99.90;;;;;;4906626;29;20046;-83
2021/12/07 03:51:17;;;;;;;72.43;24.38;;;1.00;99.90;;;;;;4892321;29;22739;-83
2021/12/07 03:53:43;;;;;;;90.53;27.73;;;1.00;99.90;;;;;;4868889;29;20061;-82
2021/12/07 03:56:12;;;;;;;117.05;31.45;;;1.00;99.90;;;;;;4913618;29;20225;-83
2021/12/07 03:58:39;;;;;;;83.13;27.17;;;1.00;99.90;;;;;;4917138;29;20118;-83
2021/12/07 04:01:09;;;;;;;85.53;28.05;;;1.00;99.90;;;;;;4917695;29;20036;-84
2021/12/07 04:03:36;;;;;;;82.25;29.00;;;1.00;99.90;;;;;;4917705;29;20078;-83
2021/12/07 04:06:06;;;;;;;92.55;29.13;;;1.00;99.90;;;;;;4889388;29;20046;-83
2021/12/07 04:08:33;;;;;;;107.63;31.38;;;1.00;99.90;;;;;;4914738;29;20839;-84
2021/12/07 04:11:00;;;;;;;91.50;30.45;;;1.00;99.90;;;;;;4900288;29;20684;-83
2021/12/07 04:13:27;;;;;;;84.25;28.38;;;1.10;99.90;;;;;;4887256;29;20070;-82
2021/12/07 04:15:54;;;;;;;86.35;29.33;;;1.00;99.90;;;;;;4881822;29;20043;-84
2021/12/07 04:18:20;;;;;;;102.57;30.52;;;1.00;99.90;;;;;;4882215;29;20047;-84
2021/12/07 04:20:46;;;;;;;130.40;30.90;;;1.00;99.90;;;;;;4915177;29;20039;-86
2021/12/07 04:23:13;;;;;;;110.93;30.42;;;1.00;99.90;;;;;;4930731;29;20040;-84
2021/12/07 04:25:40;;;;;;;88.47;28.00;;;1.00;99.90;;;;;;4883061;29;20038;-84
2021/12/07 04:28:06;;;;;;;86.05;27.88;;;1.00;99.90;;;;;;4904064;29;20055;-83
2021/12/07 04:30:39;;;;;;;115.97;29.30;;;1.00;99.90;;;;;;4884796;29;20526;-84
2021/12/07 04:33:07;;;;;;;112.80;30.95;;;1.00;99.90;;;;;;4903331;29;20039;-84
2021/12/07 04:35:34;;;;;;;112.13;30.45;;;1.00;99.90;;;;;;4900680;29;20066;-83
2021/12/07 04:38:00;;;;;;;116.57;30.92;;;1.00;99.90;;;;;;4879670;29;20139;-83
2021/12/07 04:40:29;;;;;;;107.60;30.58;;;0.90;99.90;;;;;;4885156;29;20668;-83
2021/12/07 04:42:55;;;;;;;107.15;31.25;;;0.90;99.90;;;;;;4911183;29;20040;-85
2021/12/07 04:45:33;;;;;;;101.60;30.15;;;1.00;99.90;;;;;;4896986;29;20065;-84
2021/12/07 04:58:30;;;;;;;96.30;28.83;;;0.90;99.90;;;;;;4911534;29;20679;-84
2021/12/07 05:00:59;;;;;;;98.97;27.60;;;0.90;99.90;;;;;;4885930;29;20513;-85
2021/12/07 05:03:27;;;;;;;92.43;27.85;;;1.00;99.90;;;;;;4912510;29;20043;-84
2021/12/07 05:05:54;;;;;;;94.15;25.77;;;0.90;99.90;;;;;;4909481;29;20043;-83
2021/12/07 05:08:39;;;;;;;104.22;29.20;;;0.90;99.90;;;;;;4912733;29;20068;-83
2021/12/07 05:13:40;;;;;;;97.25;28.08;;;1.00;99.90;;;;;;4914115;29;20685;-85
2021/12/07 05:16:30;;;;;;;87.50;26.23;;;0.90;99.90;;;;;;4913654;29;20068;-84
2021/12/07 05:23:54;;;;;;;87.68;26.52;;;0.90;99.90;;;;;;4915651;29;20050;-84
2021/12/07 05:25:10;;;;;;;81.47;24.83;;;0.90;99.90;;;;;;4915643;29;20511;-83
2021/12/07 05:38:33;;;;;;;91.05;26.38;;;0.90;99.90;;;;;;4915726;29;20039;-84
2021/12/07 05:40:59;;;;;;;94.07;25.52;;;0.90;99.90;;;;;;4904034;29;20044;-84
2021/12/07 05:43:25;;;;;;;79.68;22.95;;;0.80;99.90;;;;;;4900666;29;20092;-85
2021/12/07 05:45:51;;;;;;;86.53;24.65;;;0.90;99.90;;;;;;4903770;29;20442;-85
2021/12/07 05:48:17;;;;;;;84.50;24.83;;;0.80;99.90;;;;;;4903533;29;20392;-83
2021/12/07 05:50:43;;;;;;;83.80;23.80;;;0.80;99.90;;;;;;4889323;29;20140;-84
2021/12/07 05:53:11;;;;;;;91.22;24.13;;;0.80;99.90;;;;;;4939201;29;20036;-84
2021/12/07 05:55:38;;;;;;;77.72;24.05;;;0.80;99.90;;;;;;4887574;29;20057;-84
2021/12/07 05:58:07;;;;;;;80.93;24.02;;;0.70;99.90;;;;;;4921508;29;20054;-84
2021/12/07 06:00:35;;;;;;;84.22;24.73;;;0.80;99.90;;;;;;4901880;29;20039;-84
2021/12/07 06:03:07;;;;;;;98.32;25.15;;;0.70;99.90;;;;;;4918616;29;20043;-84
2021/12/07 06:05:34;;;;;;;95.80;25.33;;;0.70;99.90;;;;;;4920286;29;20039;-84
2021/12/07 06:08:00;;;;;;;91.38;24.73;;;0.70;99.90;;;;;;4918891;29;20070;-83
2021/12/07 06:10:27;;;;;;;104.53;25.58;;;0.80;99.90;;;;;;4903598;29;20068;-83
2021/12/07 06:12:54;;;;;;;85.70;23.83;;;0.70;99.90;;;;;;4912861;29;20043;-83
2021/12/07 06:15:22;;;;;;;77.68;24.65;;;0.70;99.90;;;;;;4884530;29;20046;-84
2021/12/07 06:17:48;;;;;;;77.40;24.02;;;0.80;99.90;;;;;;4901997;29;20040;-84
2021/12/07 06:20:15;;;;;;;109.07;27.13;;;0.80;99.90;;;;;;4902755;28;20047;-84
2021/12/07 06:22:41;;;;;;;90.55;25.70;;;0.80;99.90;;;;;;4915780;29;20046;-83
2021/12/07 06:25:08;;;;;;;94.15;25.80;;;0.80;99.90;;;;;;4918494;29;20311;-83
2021/12/07 06:27:34;;;;;;;96.88;24.15;;;0.90;99.90;;;;;;4921590;29;20032;-83
2021/12/07 06:30:00;;;;;;;91.18;25.08;;;0.90;99.90;;;;;;4905842;28;20054;-83
2021/12/07 06:32:28;;;;;;;88.28;25.38;;;0.90;99.90;;;;;;4932228;29;20036;-83
2021/12/07 06:34:54;;;;;;;80.85;23.92;;;1.00;99.90;;;;;;4902998;29;20051;-83
2021/12/07 06:37:20;;;;;;;77.57;23.73;;;0.90;99.90;;;;;;4899395;29;20048;-83
2021/12/07 06:39:46;;;;;;;92.43;24.27;;;1.00;99.90;;;;;;4900641;29;20102;-83
2021/12/07 06:42:12;;;;;;;91.15;25.63;;;1.00;99.90;;;;;;4881411;29;20044;-82
2021/12/07 06:44:38;;;;;;;111.07;25.95;;;1.10;99.90;;;;;;4901744;29;20036;-83
2021/12/07 06:47:04;;;;;;;80.70;22.77;;;1.10;99.90;;;;;;4885853;29;20051;-83
2021/12/07 06:49:30;;;;;;;90.43;24.77;;;1.20;99.90;;;;;;4904098;29;20098;-81
2021/12/07 06:51:57;;;;;;;92.07;24.70;;;1.20;99.90;;;;;;4911776;29;21155;-82
2021/12/07 06:54:23;;;;;;;70.25;22.33;;;1.20;99.90;;;;;;4910061;29;20074;-83
2021/12/07 06:56:49;;;;;;;79.85;22.15;;;1.20;99.90;;;;;;4899166;29;20510;-83
2021/12/07 06:59:15;;;;;;;63.15;20.52;;;1.20;99.90;;;;;;4881782;29;20113;-82
2021/12/07 07:01:41;;;;;;;80.28;23.65;;;1.20;99.90;;;;;;4872822;29;20759;-83
2021/12/07 07:04:08;;;;;;;73.53;23.23;;;1.10;99.90;;;;;;4887337;29;20048;-84
2021/12/07 07:06:34;;;;;;;79.65;23.15;;;1.10;99.90;;;;;;4927362;29;20123;-84
2021/12/07 07:09:00;;;;;;;92.13;22.85;;;1.10;99.90;;;;;;4886421;29;20043;-84
2021/12/07 07:11:26;;;;;;;101.93;23.52;;;1.10;99.90;;;;;;4890000;29;20043;-84
2021/12/07 07:13:52;;;;;;;78.03;22.15;;;1.00;99.90;;;;;;4889788;29;20115;-84
2021/12/07 07:16:17;;;;;;;81.07;23.05;;;1.00;99.90;;;;;;4888922;29;20039;-83
2021/12/07 07:18:43;;;;;;;84.85;23.40;;;0.90;99.90;;;;;;4887442;29;20039;-85
2021/12/07 07:21:09;;;;;;;74.07;21.65;;;0.90;99.90;;;;;;4915810;29;20327;-84
2021/12/07 07:23:38;;;;;;;85.68;24.55;;;0.90;99.90;;;;;;4874984;29;20036;-83
2021/12/07 07:26:04;;;;;;;79.82;21.80;;;0.90;99.90;;;;;;4885857;29;20114;-83
2021/12/07 07:28:31;;;;;;;80.47;21.42;;;0.90;99.90;;;;;;4885741;29;20032;-84
2021/12/07 07:30:57;;;;;;;71.55;21.23;;;0.80;99.90;;;;;;4900361;29;20032;-83
2021/12/07 07:33:24;;;;;;;94.13;25.00;;;0.90;99.90;;;;;;4886032;29;20043;-84
2021/12/07 07:35:51;;;;;;;75.32;21.40;;;0.90;99.90;;;;;;4868424;29;20075;-83
2021/12/07 07:38:18;;;;;;;83.75;24.65;;;1.00;99.90;;;;;;4885324;29;20043;-84
2021/12/07 07:40:46;;;;;;;90.57;23.67;;;1.00;99.90;;;;;;4882466;29;20039;-83
2021/12/07 07:43:13;;;;;;;72.90;22.83;;;1.10;99.90;;;;;;4891425;29;20440;-83
2021/12/07 07:45:39;;;;;;;86.50;25.48;;;1.20;99.90;;;;;;4907348;29;20061;-85
2021/12/07 07:48:05;;;;;;;75.38;23.95;;;1.20;99.90;;;;;;4884817;29;20413;-84
2021/12/07 07:50:31;;;;;;;88.07;24.05;;;1.20;99.90;;;;;;4889492;29;20142;-84
2021/12/07 07:52:57;;;;;;;96.20;24.83;;;1.20;99.90;;;;;;4901412;29;20043;-84
2021/12/07 07:55:22;;;;;;;83.60;23.58;;;1.30;99.90;;;;;;4852363;29;20050;-83
2021/12/07 07:57:48;;;;;;;82.25;24.38;;;1.30;99.90;;;;;;4887476;29;20048;-83
2021/12/07 08:00:17;;;;;;;80.40;23.25;;;1.30;99.90;;;;;;4874636;29;20047;-83
2021/12/07 08:02:44;;;;;;;69.18;22.27;;;1.30;99.90;;;;;;4897730;29;20476;-83
2021/12/07 08:05:10;;;;;;;68.30;21.75;;;1.40;99.90;;;;;;4881159;29;20043;-83
2021/12/07 08:07:35;;;;;;;60.88;20.55;;;1.40;99.90;;;;;;4870076;29;20036;-83
2021/12/07 08:10:02;;;;;;;65.80;22.40;;;1.40;99.90;;;;;;4870761;29;20047;-83
2021/12/07 08:12:41;;;;;;;;;;;;;;;;;;;;;
2021/12/07 08:15:10;;;;;;;60.38;19.65;;;1.40;99.90;;;;;;4887158;29;20491;-84
2021/12/07 08:17:44;;;;;;;70.80;20.25;;;1.40;99.90;;;;;;4879979;29;20166;-84
2021/12/07 08:20:36;;;;;;;74.25;20.20;;;1.40;99.90;;;;;;4908187;29;20046;-84
2021/12/07 08:23:06;;;;;;;70.13;20.20;;;1.40;99.90;;;;;;4893243;29;20060;-84
2021/12/07 08:25:35;;;;;;;60.90;19.95;;;1.30;99.90;;;;;;4895280;29;20099;-84
2021/12/07 08:28:01;;;;;;;61.65;19.00;;;1.30;99.90;;;;;;4898386;29;20043;-84
2021/12/07 08:30:27;;;;;;;60.83;19.63;;;1.30;99.90;;;;;;4917529;29;20118;-86
2021/12/07 08:32:53;;;;;;;75.20;19.83;;;1.30;99.90;;;;;;4861753;29;22100;-84
2021/12/07 08:35:20;;;;;;;65.50;18.98;;;1.30;99.90;;;;;;4866530;29;20042;-84
2021/12/07 08:37:47;;;;;;;83.50;20.55;;;1.30;99.90;;;;;;4879220;29;20047;-85
2021/12/07 08:40:23;;;;;;;81.20;19.73;;;1.30;99.90;;;;;;4894751;28;20063;-85
2021/12/07 08:42:50;;;;;;;76.55;18.85;;;1.40;99.90;;;;;;4904842;29;20162;-85
2021/12/07 08:45:24;;;;;;;58.45;19.25;;;1.40;99.90;;;;;;4865533;29;20063;-85
2021/12/07 08:47:50;;;;;;;87.63;21.55;;;1.40;99.90;;;;;;4891387;29;20067;-85
2021/12/07 08:50:20;;;;;;;80.43;20.55;;;1.40;99.90;;;;;;4883901;28;20099;-85
2021/12/07 08:52:48;;;;;;;81.50;20.80;;;1.40;99.90;;;;;;4912980;29;20204;-85
2021/12/07 09:00:33;;;;;;;59.90;19.63;;;1.50;99.90;;;;;;4885456;29;20380;-84
2021/12/07 09:02:59;;;;;;;65.25;20.73;;;1.60;99.90;;;;;;4898230;29;20055;-84
2021/12/07 09:05:25;;;;;;;63.08;19.08;;;1.60;99.90;;;;;;4864846;29;20055;-84
2021/12/07 09:07:52;;;;;;;51.90;17.65;;;1.60;99.90;;;;;;4867993;29;20047;-84
2021/12/07 09:10:18;;;;;;;57.67;18.58;;;1.60;99.90;;;;;;4882456;29;20043;-84
2021/12/07 09:12:44;;;;;;;55.50;18.30;;;1.70;99.90;;;;;;4906890;29;20051;-85
2021/12/07 09:15:12;;;;;;;56.75;18.38;;;1.70;99.90;;;;;;4907501;29;20027;-84
2021/12/07 09:17:38;;;;;;;44.63;17.25;;;1.70;99.90;;;;;;4896845;29;22215;-85
2021/12/07 09:20:11;;;;;;;55.58;18.65;;;1.80;99.90;;;;;;4883204;29;20039;-84
2021/12/07 09:22:37;;;;;;;53.95;18.40;;;1.80;99.90;;;;;;4899581;29;20491;-84
2021/12/07 09:25:07;;;;;;;51.22;17.85;;;1.90;99.90;;;;;;4883077;29;20523;-85
2021/12/07 09:27:33;;;;;;;59.97;18.83;;;1.90;99.90;;;;;;4895901;29;20051;-84
2021/12/07 09:29:59;;;;;;;58.00;19.35;;;1.90;99.90;;;;;;4868044;29;20111;-85
2021/12/07 09:32:25;;;;;;;68.43;20.15;;;2.00;99.90;;;;;;4867201;29;20044;-84
2021/12/07 09:34:51;;;;;;;48.65;16.85;;;2.00;99.90;;;;;;4852779;29;20079;-84
2021/12/07 09:37:17;;;;;;;51.95;17.23;;;2.10;99.90;;;;;;4885204;29;20047;-83
2021/12/07 09:39:43;;;;;;;53.90;18.27;;;2.10;99.90;;;;;;4853466;29;20040;-83
2021/12/07 09:42:09;;;;;;;41.65;16.38;;;2.10;99.90;;;;;;4888327;29;20088;-86
2021/12/07 09:44:35;;;;;;;60.00;18.52;;;2.20;99.90;;;;;;4914409;29;20175;-84
2021/12/07 09:47:01;;;;;;;43.92;17.50;;;2.20;99.90;;;;;;4888760;29;20047;-83
2021/12/07 09:49:27;;;;;;;44.42;16.23;;;2.20;99.90;;;;;;4868684;29;20764;-85
2021/12/07 09:51:53;;;;;;;58.70;18.88;;;2.30;99.90;;;;;;4867827;29;20054;-84
2021/12/07 09:54:19;;;;;;;48.95;16.98;;;2.30;99.90;;;;;;4881704;29;20039;-85
2021/12/07 09:56:45;;;;;;;44.40;16.38;;;2.40;99.90;;;;;;4900625;29;20340;-83
2021/12/07 09:59:11;;;;;;;32.13;14.85;;;2.50;99.90;;;;;;4900220;29;20471;-84
2021/12/07 10:01:41;;;;;;;42.97;15.48;;;2.50;99.90;;;;;;4864180;29;20703;-82
2021/12/07 10:04:10;;;;;;;41.83;16.83;;;2.50;99.90;;;;;;4911377;29;20123;-84
2021/12/07 10:06:37;;;;;;;44.10;15.63;;;2.60;99.90;;;;;;4900088;29;21727;-84
2021/12/07 10:09:07;;;;;;;46.00;14.80;;;2.60;99.90;;;;;;4912827;29;20099;-85
2021/12/07 10:11:36;;;;;;;40.50;15.27;;;2.70;99.90;;;;;;4883386;29;20391;-83
2021/12/07 10:14:02;;;;;;;45.58;16.02;;;2.80;99.90;;;;;;4917687;29;20079;-84
2021/12/07 10:16:28;;;;;;;37.28;14.95;;;2.90;99.90;;;;;;4895573;29;20040;-85
2021/12/07 10:18:54;;;;;;;40.20;16.70;;;2.90;99.90;;;;;;4866636;29;20612;-84
2021/12/07 10:21:25;;;;;;;40.97;15.30;;;3.00;99.90;;;;;;4869639;29;20562;-85
2021/12/07 10:24:02;;;;;;;37.05;13.95;;;3.10;99.90;;;;;;4884920;29;20043;-84
2021/12/07 10:26:31;;;;;;;37.78;13.73;;;3.20;99.90;;;;;;4902730;29;20036;-84
2021/12/07 10:29:13;;;;;;;36.25;13.80;;;3.20;99.90;;;;;;4897875;29;20502;-84
2021/12/07 10:31:44;;;;;;;26.38;11.63;;;3.30;99.90;;;;;;4882072;29;20102;-85
2021/12/07 10:34:29;;;;;;;25.35;10.65;;;3.30;99.90;;;;;;4881594;29;20542;-85
2021/12/07 10:37:08;;;;;;;31.23;11.48;;;3.30;99.90;;;;;;4893406;29;20738;-85
2021/12/07 10:39:50;;;;;;;26.70;10.88;;;3.30;99.90;;;;;;4908066;29;20084;-84
2021/12/07 10:42:29;;;;;;;28.25;11.20;;;3.30;99.90;;;;;;4892903;29;20182;-84
2021/12/07 10:44:58;;;;;;;33.00;11.95;;;3.30;99.90;;;;;;4910911;29;20043;-84
2021/12/07 10:47:25;;;;;;;37.42;11.50;;;3.20;99.90;;;;;;4882806;29;20663;-85
2021/12/07 10:50:00;;;;;;;30.70;11.15;;;3.20;99.90;;;;;;4883550;29;20040;-84
2021/12/07 10:52:38;;;;;;;30.70;10.90;;;3.20;99.90;;;;;;4900074;29;20043;-85
2021/12/07 10:55:23;;;;;;;30.88;11.57;;;3.20;99.90;;;;;;4894307;29;20444;-85
2021/12/07 10:57:59;;;;;;;25.35;11.20;;;3.20;99.90;;;;;;4904220;29;20047;-86
2021/12/07 11:00:33;;;;;;;30.90;11.68;;;3.30;99.90;;;;;;4900171;29;20503;-84
2021/12/07 11:03:07;;;;;;;28.35;10.65;;;3.50;99.90;;;;;;4883393;29;20049;-84
2021/12/07 11:05:43;;;;;;;32.45;10.95;;;3.70;99.90;;;;;;4898805;29;21099;-84
2021/12/07 11:08:10;;;;;;;29.73;10.18;;;3.80;99.90;;;;;;4897821;29;20099;-84
2021/12/07 11:10:55;;;;;;;30.40;10.98;;;3.90;99.90;;;;;;4897887;29;20036;-85
2021/12/07 11:13:50;;;;;;;29.42;11.20;;;4.00;99.90;;;;;;4896046;29;20119;-84
2021/12/07 11:16:36;;;;;;;32.75;11.43;;;4.10;99.90;;;;;;4882088;29;20106;-85
2021/12/07 11:19:32;;;;;;;31.13;11.13;;;4.30;99.90;;;;;;4897435;29;20036;-85
2021/12/07 11:22:03;;;;;;;31.52;9.77;;;4.30;99.90;;;;;;4914540;29;20044;-83
2021/12/07 11:24:43;;;;;;;19.58;8.88;;;4.50;99.90;;;;;;4867934;29;20620;-87
2021/12/07 11:30:18;;;;;;;26.67;8.18;;;4.60;99.90;;;;;;4916382;29;20040;-83
2021/12/07 11:32:57;;;;;;;20.70;7.50;;;4.70;99.90;;;;;;4900465;29;20051;-85
2021/12/07 11:35:43;;;;;;;22.65;8.70;;;4.70;99.90;;;;;;4879142;29;20043;-84
2021/12/07 11:38:29;;;;;;;23.63;9.13;;;4.90;99.90;;;;;;4893272;29;20487;-85
2021/12/07 11:41:27;;;;;;;20.25;8.40;;;5.00;99.90;;;;;;4893806;29;20524;-85
2021/12/07 11:44:09;;;;;;;23.27;8.43;;;5.10;99.90;;;;;;4877768;29;20032;-85
2021/12/07 11:46:47;;;;;;;18.00;7.28;;;5.40;99.90;;;;;;4885428;29;20063;-83
2021/12/07 11:49:31;;;;;;;23.13;7.13;;;5.60;99.90;;;;;;4881669;29;20054;-85
2021/12/07 11:52:11;;;;;;;28.13;7.70;;;5.70;99.90;;;;;;4891755;29;20394;-84
2021/12/07 11:54:52;;;;;;;15.07;6.80;;;5.70;99.90;;;;;;4895466;29;20123;-84
2021/12/07 11:57:44;;;;;;;19.00;6.80;;;5.70;99.90;;;;;;4882885;29;20161;-86
2021/12/07 12:00:34;;;;;;;16.85;6.63;;;5.70;99.90;;;;;;4920931;29;20449;-84
2021/12/07 12:03:15;;;;;;;18.48;7.00;;;5.70;99.90;;;;;;4908271;29;20048;-84
2021/12/07 12:05:52;;;;;;;21.25;6.80;;;5.70;99.90;;;;;;4893634;29;20039;-84
2021/12/07 12:08:35;;;;;;;15.50;7.20;;;5.70;99.90;;;;;;4893648;29;20046;-84
2021/12/07 12:11:21;;;;;;;19.48;6.60;;;5.80;99.90;;;;;;4894385;29;20346;-84
2021/12/07 12:14:34;;;;;;;19.92;6.82;;;5.80;99.90;;;;;;4909896;29;20130;-85
2021/12/07 12:17:28;;;;;;;17.63;6.68;;;5.90;99.90;;;;;;4879651;29;20044;-85
2021/12/07 12:20:10;;;;;;;16.55;6.22;;;6.00;99.90;;;;;;4878197;29;20358;-86
2021/12/07 12:23:18;;;;;;;22.88;6.38;;;6.10;99.90;;;;;;4901000;29;20043;-85
2021/12/07 12:26:04;;;;;;;19.60;5.95;;;6.30;99.90;;;;;;4923495;29;20039;-85
2021/12/07 12:28:54;;;;;;;18.10;6.70;;;6.40;99.90;;;;;;4895708;29;20620;-84
2021/12/07 12:31:43;;;;;;;17.05;6.13;;;6.70;99.90;;;;;;4913953;29;20440;-85
2021/12/07 12:34:23;;;;;;;17.00;6.00;;;7.10;99.90;;;;;;4893930;29;20089;-85
2021/12/07 12:37:01;;;;;;;16.30;5.97;;;7.30;99.90;;;;;;4909244;29;20063;-85
2021/12/07 12:40:05;;;;;;;20.45;6.30;;;7.20;99.90;;;;;;4888143;29;20036;-85
2021/12/07 12:42:38;;;;;;;15.20;5.88;;;7.10;99.90;;;;;;4842193;29;20060;-85
2021/12/07 12:45:29;;;;;;;20.13;6.05;;;7.00;99.90;;;;;;4886883;29;20341;-87
2021/12/07 12:48:15;;;;;;;16.80;6.15;;;7.10;99.90;;;;;;4891924;29;20043;-86
2021/12/07 12:50:56;;;;;;;23.40;7.28;;;7.00;99.90;;;;;;4894581;29;20436;-84
2021/12/07 12:53:36;;;;;;;16.98;6.28;;;7.10;99.90;;;;;;4905348;29;20454;-85
2021/12/07 12:56:07;;;;;;;16.38;6.03;;;7.10;99.90;;;;;;4881063;29;20440;-86
2021/12/07 12:58:36;;;;;;;18.70;6.50;;;6.90;99.90;;;;;;4898500;29;20042;-85
2021/12/07 13:01:05;;;;;;;26.65;8.02;;;6.70;99.90;;;;;;4894431;29;20048;-84
2021/12/07 13:03:57;;;;;;;20.92;6.72;;;6.60;99.90;;;;;;4908483;29;20410;-85
2021/12/07 13:06:38;;;;;;;22.23;7.45;;;6.50;99.90;;;;;;4899221;29;20044;-85
2021/12/07 13:09:11;;;;;;;21.15;6.82;;;6.30;99.90;;;;;;4883441;29;20040;-85
2021/12/07 13:12:00;;;;;;;25.90;8.10;;;6.20;99.90;;;;;;4916288;29;20047;-85
2021/12/07 13:14:26;;;;;;;21.02;7.53;;;6.20;99.90;;;;;;4906697;29;20032;-85
2021/12/07 13:17:06;;;;;;;26.48;6.88;;;6.10;99.90;;;;;;4910086;29;20055;-84
2021/12/07 13:20:04;;;;;;;19.58;7.45;;;6.10;99.90;;;;;;4901159;29;20036;-85
2021/12/07 13:22:47;;;;;;;26.77;7.68;;;6.10;99.90;;;;;;4898664;29;20043;-84
2021/12/07 13:25:31;;;;;;;19.85;6.22;;;6.00;99.90;;;;;;4882844;29;20085;-84
2021/12/07 13:28:04;;;;;;;23.65;7.03;;;5.90;99.90;;;;;;4911901;29;20163;-84
2021/12/07 13:31:20;;;;;;;18.83;7.97;;;5.90;99.90;;;;;;4900002;29;20055;-85
2021/12/07 13:33:57;;;;;;;34.45;8.77;;;5.90;99.90;;;;;;4912318;29;20398;-85
2021/12/07 13:36:41;;;;;;;19.20;7.18;;;5.90;99.90;;;;;;4917658;29;20045;-84
2021/12/07 13:39:18;;;;;;;19.67;6.43;;;5.80;99.90;;;;;;4896856;29;20044;-84
2021/12/07 13:42:03;;;;;;;21.95;7.95;;;5.80;99.90;;;;;;4922421;29;20686;-83
2021/12/07 13:44:32;;;;;;;23.48;8.23;;;5.80;99.90;;;;;;4900757;29;20075;-85
2021/12/07 13:47:11;;;;;;;21.88;8.18;;;5.80;99.90;;;;;;4924272;29;20297;-84
2021/12/07 13:49:39;;;;;;;24.65;8.32;;;5.70;99.90;;;;;;4895423;29;20640;-83
2021/12/07 13:52:12;;;;;;;19.10;8.70;;;5.70;99.90;;;;;;4923793;29;20048;-84
2021/12/07 13:54:53;;;;;;;31.17;8.50;;;5.60;99.90;;;;;;4919025;29;20277;-84
2021/12/07 13:57:23;;;;;;;36.53;11.35;;;5.50;99.90;;;;;;4909862;29;20717;-84
2021/12/07 14:00:01;;;;;;;25.13;9.65;;;5.50;99.90;;;;;;4907805;29;20059;-84
2021/12/07 14:02:29;;;;;;;23.50;10.00;;;5.50;99.90;;;;;;4911497;29;20068;-86
2021/12/07 14:05:20;;;;;;;29.10;10.23;;;5.40;99.90;;;;;;4888434;29;20035;-86
2021/12/07 14:07:48;;;;;;;27.63;10.27;;;5.30;99.90;;;;;;4909584;29;20054;-84
2021/12/07 14:10:16;;;;;;;32.10;11.32;;;5.30;99.90;;;;;;4926886;29;20044;-84
2021/12/07 14:12:43;;;;;;;29.05;11.30;;;5.20;99.90;;;;;;4894124;29;20039;-85
2021/12/07 14:15:13;;;;;;;37.05;11.57;;;5.20;99.90;;;;;;4880147;29;20044;-83
2021/12/07 14:17:52;;;;;;;26.92;12.18;;;5.10;99.90;;;;;;4922934;29;20079;-83
2021/12/07 14:20:50;;;;;;;24.17;10.98;;;5.10;99.90;;;;;;4891761;29;20032;-85
2021/12/07 14:23:26;;;;;;;30.13;11.90;;;5.00;99.90;;;;;;4909785;29;20039;-84
2021/12/07 14:25:55;;;;;;;29.63;12.27;;;4.90;99.90;;;;;;4913260;29;20207;-84
2021/12/07 14:28:55;;;;;;;30.10;13.20;;;4.90;99.90;;;;;;4919095;29;20048;-84
2021/12/07 14:31:34;;;;;;;37.42;13.07;;;4.80;99.90;;;;;;4903200;29;20048;-85
2021/12/07 14:34:11;;;;;;;32.00;13.48;;;4.70;99.90;;;;;;4908581;29;20070;-84
2021/12/07 14:36:49;;;;;;;30.55;13.27;;;4.70;99.90;;;;;;4906211;29;20340;-84
2021/12/07 14:39:27;;;;;;;36.33;13.68;;;4.60;99.90;;;;;;4902118;29;20043;-84